createdAt,value
2018-08-09T00:01:06.822Z,77.10
2018-08-09T00:03:36.216Z,76.60
2018-08-09T00:06:05.570Z,75.80
2018-08-09T00:08:35.060Z,75.60
2018-08-09T00:11:04.692Z,75.80
2018-08-09T00:13:34.274Z,75.60
2018-08-09T00:16:04.057Z,75.50
2018-08-09T00:18:33.381Z,75.80
2018-08-09T00:21:03.539Z,75.90
2018-08-09T00:23:33.118Z,76.10
2018-08-09T00:26:02.787Z,76.40
2018-08-09T00:28:32.317Z,76.50
2018-08-09T00:31:01.982Z,76.50
2018-08-09T00:33:31.375Z,76.50
2018-08-09T00:36:01.091Z,76.90
2018-08-09T00:38:30.670Z,76.90
2018-08-09T00:41:00.167Z,77.20
2018-08-09T00:43:29.580Z,77.40
2018-08-09T00:45:59.195Z,77.60
2018-08-09T00:48:28.730Z,77.80
2018-08-09T00:50:58.636Z,78.10
2018-08-09T00:53:28.205Z,77.80
2018-08-09T00:55:57.556Z,78.10
2018-08-09T00:58:27.023Z,78.00
2018-08-09T01:00:56.570Z,77.50
2018-08-09T01:03:26.074Z,77.30
2018-08-09T01:05:55.572Z,76.80
2018-08-09T01:08:24.937Z,76.20
2018-08-09T01:10:54.359Z,76.30
2018-08-09T01:13:23.816Z,76.10
2018-08-09T01:15:53.246Z,75.70
2018-08-09T01:18:22.738Z,75.50
2018-08-09T01:20:52.348Z,75.70
2018-08-09T01:23:22.037Z,75.80
2018-08-09T01:25:51.495Z,73.90
2018-08-09T01:28:20.927Z,71.70
2018-08-09T01:30:50.375Z,71.60
2018-08-09T01:33:19.924Z,71.10
2018-08-09T01:35:49.496Z,70.50
2018-08-09T01:38:18.969Z,69.80
2018-08-09T01:40:48.614Z,69.30
2018-08-09T01:43:28.957Z,69.40
2018-08-09T01:45:58.566Z,69.50
2018-08-09T01:48:28.507Z,69.50
2018-08-09T01:50:57.797Z,69.50
2018-08-09T01:53:27.440Z,69.60
2018-08-09T01:55:56.956Z,69.50
2018-08-09T01:58:26.297Z,69.50
2018-08-09T02:00:55.702Z,69.50
2018-08-09T02:03:25.170Z,69.60
2018-08-09T02:05:54.582Z,69.80
2018-08-09T02:08:24.090Z,70.10
2018-08-09T02:10:53.629Z,70.10
2018-08-09T02:13:23.195Z,70.30
2018-08-09T02:15:52.641Z,70.30
2018-08-09T02:18:22.244Z,70.30
2018-08-09T02:20:51.857Z,70.50
2018-08-09T02:23:21.391Z,70.70
2018-08-09T02:25:51.205Z,70.80
2018-08-09T02:28:20.655Z,70.70
2018-08-09T02:30:50.002Z,71.00
2018-08-09T02:33:19.737Z,71.20
2018-08-09T02:35:49.311Z,71.20
2018-08-09T02:38:18.922Z,71.30
2018-08-09T02:40:48.439Z,71.20
2018-08-09T02:43:17.878Z,71.20
2018-08-09T02:45:47.610Z,71.10
2018-08-09T02:48:17.267Z,70.90
2018-08-09T02:50:47.134Z,71.10
2018-08-09T02:53:16.565Z,71.40
2018-08-09T02:55:46.137Z,71.10
2018-08-09T02:58:15.742Z,71.10
2018-08-09T03:00:45.730Z,71.30
2018-08-09T03:03:15.352Z,71.40
2018-08-09T03:05:44.802Z,71.50
2018-08-09T03:08:14.459Z,71.80
2018-08-09T03:10:43.884Z,72.40
2018-08-09T03:13:13.413Z,75.70
2018-08-09T03:15:43.143Z,77.20
2018-08-09T03:18:13.183Z,77.90
2018-08-09T03:20:42.736Z,78.30
2018-08-09T03:23:12.852Z,79.80
2018-08-09T03:25:42.388Z,80.80
2018-08-09T03:28:12.058Z,80.50
2018-08-09T03:30:41.601Z,79.70
2018-08-09T03:33:10.978Z,79.50
2018-08-09T03:35:40.624Z,78.30
2018-08-09T03:38:10.213Z,78.80
2018-08-09T03:40:40.386Z,77.90
2018-08-09T03:43:09.854Z,77.80
2018-08-09T03:45:39.299Z,78.40
2018-08-09T03:48:08.620Z,77.60
2018-08-09T03:50:38.205Z,78.30
2018-08-09T03:53:07.724Z,78.50
2018-08-09T03:55:37.600Z,78.60
2018-08-09T03:58:07.613Z,78.70
2018-08-09T04:00:37.096Z,78.70
2018-08-09T04:03:06.857Z,79.10
2018-08-09T04:05:36.379Z,79.70
2018-08-09T04:08:05.967Z,79.40
2018-08-09T04:10:35.677Z,79.40
2018-08-09T04:13:05.290Z,79.80
2018-08-09T04:15:34.859Z,79.80
2018-08-09T04:18:04.555Z,80.20
2018-08-09T04:20:34.072Z,80.30
2018-08-09T04:23:03.677Z,80.30
2018-08-09T04:25:33.289Z,80.20
2018-08-09T04:28:02.794Z,79.40
2018-08-09T04:30:32.304Z,79.40
2018-08-09T04:33:01.806Z,78.90
2018-08-09T04:35:31.235Z,78.30
2018-08-09T04:38:01.280Z,77.70
2018-08-09T04:40:31.043Z,78.00
2018-08-09T04:43:00.521Z,78.30
2018-08-09T04:45:30.092Z,79.00
2018-08-09T04:47:59.805Z,78.40
2018-08-09T04:50:29.419Z,78.30
2018-08-09T04:52:58.871Z,78.00
2018-08-09T04:55:28.434Z,78.10
2018-08-09T04:57:57.951Z,78.00
2018-08-09T05:00:30.599Z,78.30
2018-08-09T05:03:00.125Z,78.60
2018-08-09T05:05:29.678Z,78.40
2018-08-09T05:07:59.178Z,78.20
2018-08-09T05:10:28.772Z,77.70
2018-08-09T05:12:58.524Z,77.90
2018-08-09T05:15:28.282Z,77.00
2018-08-09T05:17:57.911Z,77.20
2018-08-09T05:20:28.183Z,78.80
2018-08-09T05:22:57.624Z,77.20
2018-08-09T05:25:27.283Z,77.40
2018-08-09T05:27:56.839Z,77.70
2018-08-09T05:30:26.447Z,76.80
2018-08-09T05:32:55.871Z,77.30
2018-08-09T05:35:25.427Z,76.20
2018-08-09T05:37:55.209Z,75.50
2018-08-09T05:40:24.790Z,74.80
2018-08-09T05:42:54.240Z,74.40
2018-08-09T05:45:23.563Z,74.10
2018-08-09T05:47:53.831Z,73.40
2018-08-09T05:50:23.314Z,73.10
2018-08-09T05:52:52.981Z,72.40
2018-08-09T05:55:22.602Z,72.40
2018-08-09T05:57:52.092Z,71.70
2018-08-09T06:00:21.499Z,71.40
2018-08-09T06:02:51.446Z,71.00
2018-08-09T06:05:21.107Z,70.70
2018-08-09T06:07:51.562Z,69.40
2018-08-09T06:10:21.184Z,68.20
2018-08-09T06:12:50.772Z,68.00
2018-08-09T06:15:20.589Z,66.90
2018-08-09T06:17:50.082Z,66.20
2018-08-09T06:20:19.747Z,64.70
2018-08-09T06:22:49.222Z,64.10
2018-08-09T06:25:18.869Z,63.40
2018-08-09T06:27:48.338Z,63.00
2018-08-09T06:30:17.812Z,62.10
2018-08-09T06:32:47.379Z,62.10
2018-08-09T06:35:16.764Z,62.80
2018-08-09T06:37:46.332Z,62.20
2018-08-09T06:40:16.246Z,61.90
2018-08-09T06:42:45.926Z,61.50
2018-08-09T06:45:15.381Z,61.20
2018-08-09T06:47:44.908Z,61.00
2018-08-09T06:50:14.599Z,60.90
2018-08-09T06:52:44.232Z,60.60
2018-08-09T06:55:13.713Z,59.90
2018-08-09T06:57:43.450Z,59.90
2018-08-09T07:00:13.829Z,60.00
2018-08-09T07:02:43.762Z,59.80
2018-08-09T07:05:13.306Z,60.20
2018-08-09T07:07:43.040Z,59.50
2018-08-09T07:10:12.929Z,58.70
2018-08-09T07:12:42.613Z,58.60
2018-08-09T07:15:13.251Z,58.40
2018-08-09T07:17:43.397Z,58.20
2018-08-09T07:20:12.923Z,58.20
2018-08-09T07:22:42.637Z,57.90
2018-08-09T07:25:12.247Z,57.20
2018-08-09T07:27:41.788Z,56.50
2018-08-09T07:30:13.316Z,55.20
2018-08-09T07:32:42.971Z,53.70
2018-08-09T07:35:12.663Z,52.20
2018-08-09T07:37:42.275Z,50.50
2018-08-09T07:40:12.966Z,49.80
2018-08-09T07:42:43.594Z,48.50
2018-08-09T07:45:14.781Z,48.00
2018-08-09T07:47:44.487Z,46.70
2018-08-09T07:50:14.330Z,44.90
2018-08-09T07:52:44.043Z,44.30
2018-08-09T07:55:13.798Z,42.00
2018-08-09T07:57:43.556Z,41.50
2018-08-09T08:00:13.554Z,40.40
2018-08-09T08:02:43.361Z,40.30
2018-08-09T08:05:13.046Z,38.70
2018-08-09T08:07:42.606Z,38.30
2018-08-09T08:10:12.091Z,37.90
2018-08-09T08:12:41.649Z,36.30
2018-08-09T08:15:11.743Z,36.30
2018-08-09T08:17:41.345Z,35.60
2018-08-09T08:20:11.141Z,35.20
2018-08-09T08:22:41.648Z,34.80
2018-08-09T08:25:11.364Z,35.80
2018-08-09T08:27:41.075Z,35.90
2018-08-09T08:30:12.740Z,36.50
2018-08-09T08:32:42.946Z,34.30
2018-08-09T08:35:12.645Z,33.60
2018-08-09T08:37:42.614Z,33.20
2018-08-09T08:40:12.187Z,33.40
2018-08-09T08:42:41.620Z,33.40
2018-08-09T08:45:13.290Z,33.50
2018-08-09T08:47:43.287Z,34.00
2018-08-09T08:50:13.281Z,34.00
2018-08-09T08:52:42.722Z,34.50
2018-08-09T08:55:13.093Z,34.20
2018-08-09T08:57:42.579Z,35.00
2018-08-09T09:00:13.514Z,34.90
2018-08-09T09:02:43.111Z,34.80
2018-08-09T09:05:13.583Z,34.80
2018-08-09T09:07:43.106Z,35.20
2018-08-09T09:10:13.722Z,35.00
2018-08-09T09:12:43.513Z,35.20
2018-08-09T09:15:14.900Z,35.30
2018-08-09T09:17:44.931Z,35.70
2018-08-09T09:20:16.571Z,36.00
2018-08-09T09:22:46.194Z,36.30
2018-08-09T09:25:15.865Z,36.80
2018-08-09T09:27:45.530Z,36.90
2018-08-09T09:30:16.593Z,37.90
2018-08-09T09:32:46.446Z,38.00
2018-08-09T09:35:16.065Z,38.30
2018-08-09T09:37:45.856Z,38.80
2018-08-09T09:40:15.375Z,38.90
2018-08-09T09:42:45.522Z,39.10
2018-08-09T09:45:15.140Z,38.70
2018-08-09T09:47:44.714Z,38.10
2018-08-09T09:50:14.455Z,36.70
2018-08-09T09:52:43.946Z,36.50
2018-08-09T09:55:13.381Z,36.40
2018-08-09T09:57:42.974Z,36.10
2018-08-09T10:00:17.341Z,36.30
2018-08-09T10:02:47.763Z,35.90
2018-08-09T10:05:17.278Z,36.30
2018-08-09T10:07:46.840Z,35.90
2018-08-09T10:10:16.540Z,35.40
2018-08-09T10:12:46.201Z,34.40
2018-08-09T10:15:15.832Z,34.00
2018-08-09T10:17:45.379Z,34.10
2018-08-09T10:20:14.800Z,34.60
2018-08-09T10:22:44.536Z,34.10
2018-08-09T10:25:14.063Z,34.00
2018-08-09T10:27:43.622Z,34.40
2018-08-09T10:30:13.138Z,34.80
2018-08-09T10:32:42.719Z,35.60
2018-08-09T10:35:13.168Z,36.10
2018-08-09T10:37:42.758Z,35.70
2018-08-09T10:40:12.325Z,35.70
2018-08-09T10:42:41.917Z,35.60
2018-08-09T10:45:12.364Z,35.40
2018-08-09T10:47:41.926Z,35.40
2018-08-09T10:50:11.533Z,35.40
2018-08-09T10:52:41.163Z,34.80
2018-08-09T10:55:11.034Z,34.80
2018-08-09T10:57:40.536Z,34.40
2018-08-09T11:00:12.614Z,34.10
2018-08-09T11:02:42.312Z,34.50
2018-08-09T11:05:11.778Z,33.90
2018-08-09T11:07:41.515Z,34.60
2018-08-09T11:10:11.638Z,34.60
2018-08-09T11:12:41.148Z,35.10
2018-08-09T11:15:13.193Z,35.00
2018-08-09T11:17:43.287Z,35.00
2018-08-09T11:20:13.805Z,35.20
2018-08-09T11:22:43.418Z,35.00
2018-08-09T11:25:13.009Z,34.60
2018-08-09T11:27:42.657Z,33.20
2018-08-09T11:30:12.204Z,33.40
2018-08-09T11:32:41.740Z,33.60
2018-08-09T11:35:11.234Z,33.60
2018-08-09T11:37:40.739Z,33.00
2018-08-09T11:40:10.497Z,32.40
2018-08-09T11:42:40.274Z,32.00
2018-08-09T11:45:09.802Z,31.90
2018-08-09T11:47:39.766Z,31.70
2018-08-09T11:50:09.355Z,31.50
2018-08-09T11:52:38.912Z,31.60
2018-08-09T11:55:08.422Z,31.60
2018-08-09T11:57:38.091Z,31.10
2018-08-09T12:00:08.813Z,30.90
2018-08-09T12:02:38.322Z,30.40
2018-08-09T12:05:07.971Z,31.00
2018-08-09T12:07:37.445Z,31.50
2018-08-09T12:10:07.215Z,31.90
2018-08-09T12:12:36.708Z,31.40
2018-08-09T12:15:07.757Z,30.60
2018-08-09T12:17:37.455Z,31.80
2018-08-09T12:20:07.459Z,30.90
2018-08-09T12:22:36.849Z,31.30
2018-08-09T12:25:06.637Z,31.70
2018-08-09T12:27:36.669Z,32.40
2018-08-09T12:30:10.038Z,32.10
2018-08-09T12:32:39.872Z,31.30
2018-08-09T12:35:14.441Z,32.00
2018-08-09T12:37:44.737Z,31.70
2018-08-09T12:40:14.277Z,32.10
2018-08-09T12:42:43.700Z,31.90
2018-08-09T12:45:13.560Z,29.20
2018-08-09T12:47:44.041Z,28.40
2018-08-09T12:50:14.634Z,28.20
2018-08-09T12:52:44.932Z,28.10
2018-08-09T12:55:15.149Z,28.10
2018-08-09T12:57:44.689Z,28.70
2018-08-09T13:00:15.154Z,28.80
2018-08-09T13:02:44.737Z,29.40
2018-08-09T13:05:14.511Z,29.30
2018-08-09T13:07:44.029Z,29.20
2018-08-09T13:10:14.605Z,29.50
2018-08-09T13:12:44.439Z,29.90
2018-08-09T13:15:14.775Z,30.30
2018-08-09T13:17:45.737Z,30.80
2018-08-09T13:20:18.367Z,31.10
2018-08-09T13:22:49.042Z,30.80
2018-08-09T13:25:18.627Z,31.00
2018-08-09T13:27:48.734Z,31.30
2018-08-09T13:30:18.282Z,31.30
2018-08-09T13:32:48.511Z,31.20
2018-08-09T13:35:18.728Z,30.90
2018-08-09T13:37:48.369Z,31.50
2018-08-09T13:40:18.056Z,32.10
2018-08-09T13:42:47.704Z,32.10
2018-08-09T13:45:17.820Z,32.10
2018-08-09T13:47:47.539Z,31.80
2018-08-09T13:50:17.248Z,32.40
2018-08-09T13:52:46.706Z,33.10
2018-08-09T13:55:16.431Z,33.40
2018-08-09T13:57:46.106Z,33.60
2018-08-09T14:00:15.991Z,33.40
2018-08-09T14:02:46.362Z,33.20
2018-08-09T14:05:15.968Z,33.10
2018-08-09T14:07:45.507Z,33.20
2018-08-09T14:10:15.749Z,32.70
2018-08-09T14:12:45.250Z,31.60
2018-08-09T14:15:15.900Z,31.10
2018-08-09T14:17:45.583Z,31.90
2018-08-09T14:20:17.686Z,32.90
2018-08-09T14:22:47.188Z,33.90
2018-08-09T14:25:16.808Z,34.00
2018-08-09T14:27:46.560Z,34.20
2018-08-09T14:30:16.809Z,34.30
2018-08-09T14:32:46.688Z,34.60
2018-08-09T14:35:17.181Z,34.10
2018-08-09T14:37:47.559Z,34.20
2018-08-09T14:40:17.448Z,34.20
2018-08-09T14:42:47.250Z,33.80
2018-08-09T14:45:17.813Z,34.00
2018-08-09T14:47:47.545Z,34.40
2018-08-09T14:50:17.644Z,35.10
2018-08-09T14:52:47.285Z,35.50
2018-08-09T14:55:16.814Z,35.60
2018-08-09T14:57:46.607Z,35.40
2018-08-09T15:00:18.781Z,35.20
2018-08-09T15:02:49.213Z,35.00
2018-08-09T15:05:19.039Z,34.80
2018-08-09T15:07:48.726Z,35.10
2018-08-09T15:10:19.238Z,35.20
2018-08-09T15:12:48.794Z,35.30
2018-08-09T15:15:18.403Z,35.50
2018-08-09T15:17:47.886Z,35.50
2018-08-09T15:20:17.589Z,35.90
2018-08-09T15:22:48.124Z,35.90
2018-08-09T15:25:19.658Z,35.80
2018-08-09T15:27:49.351Z,35.80
2018-08-09T15:30:20.098Z,35.30
2018-08-09T15:32:49.808Z,35.90
2018-08-09T15:35:19.641Z,35.90
2018-08-09T15:37:49.442Z,35.90
2018-08-09T15:40:19.073Z,35.90
2018-08-09T15:42:48.689Z,35.80
2018-08-09T15:45:18.482Z,36.60
2018-08-09T15:47:48.239Z,36.20
2018-08-09T15:50:19.644Z,36.30
2018-08-09T15:52:49.350Z,36.20
2018-08-09T15:55:19.765Z,36.80
2018-08-09T15:57:49.377Z,37.10
2018-08-09T16:00:20.954Z,37.00
2018-08-09T16:02:50.650Z,37.20
2018-08-09T16:05:20.352Z,37.50
2018-08-09T16:07:49.964Z,37.70
2018-08-09T16:10:19.707Z,37.30
2018-08-09T16:12:49.632Z,37.30
2018-08-09T16:15:20.775Z,38.10
2018-08-09T16:17:50.656Z,38.60
2018-08-09T16:20:20.259Z,39.00
2018-08-09T16:22:51.030Z,39.50
2018-08-09T16:25:21.042Z,38.90
2018-08-09T16:27:50.954Z,39.00
2018-08-09T16:30:39.591Z,39.30
2018-08-09T16:33:14.526Z,39.60
2018-08-09T16:35:52.490Z,39.90
2018-08-09T16:38:26.273Z,40.00
2018-08-09T16:41:08.284Z,39.90
2018-08-09T16:59:39.812Z,40.60
2018-08-09T17:02:12.030Z,41.60
2018-08-09T17:04:43.602Z,41.80
2018-08-09T17:07:34.311Z,42.10
2018-08-09T17:10:26.211Z,42.30
2018-08-09T17:17:00.641Z,43.00
2018-08-09T17:19:39.154Z,43.30
2018-08-09T17:22:52.259Z,43.50
2018-08-09T17:25:37.082Z,43.70
2018-08-09T17:28:14.377Z,43.90
2018-08-09T17:31:08.738Z,44.10
2018-08-09T17:33:56.914Z,44.30
2018-08-09T17:36:57.538Z,44.40
2018-08-09T17:39:36.145Z,44.40
2018-08-09T17:42:16.071Z,44.50
2018-08-09T17:48:20.654Z,44.60
2018-08-09T17:51:12.052Z,45.00
2018-08-09T17:53:47.957Z,45.20
2018-08-09T17:56:38.497Z,45.10
2018-08-09T17:59:22.937Z,45.30
2018-08-09T18:02:01.348Z,45.50
2018-08-09T18:04:49.884Z,45.70
2018-08-09T18:07:47.105Z,45.90
2018-08-09T18:10:39.106Z,46.00
2018-08-09T18:13:24.978Z,46.30
2018-08-09T18:16:02.885Z,46.50
2018-08-09T18:18:56.972Z,46.70
2018-08-09T18:21:54.002Z,46.90
2018-08-09T18:24:31.931Z,47.00
2018-08-09T18:27:07.367Z,47.20
2018-08-09T18:29:44.978Z,47.30
2018-08-09T18:32:24.216Z,47.50
2018-08-09T18:35:01.476Z,47.50
2018-08-09T18:37:41.593Z,47.50
2018-08-09T18:40:19.702Z,47.50
2018-08-09T18:43:03.016Z,47.60
2018-08-09T18:45:38.200Z,47.70
2018-08-09T18:48:19.036Z,47.50
2018-08-09T18:51:02.632Z,47.80
2018-08-09T18:53:42.429Z,47.90
2018-08-09T18:56:28.456Z,48.10
2018-08-09T18:59:09.060Z,48.30
2018-08-09T19:01:45.341Z,48.30
2018-08-09T19:06:06.883Z,48.30
2018-08-09T19:09:24.895Z,48.50
2018-08-09T19:12:13.125Z,48.60
2018-08-09T19:14:58.831Z,48.80
2018-08-09T19:27:04.279Z,49.50
2018-08-09T19:29:41.581Z,49.60
2018-08-09T19:32:26.025Z,50.40
2018-08-09T19:35:17.942Z,50.00
2018-08-09T19:38:08.855Z,50.00
2018-08-09T19:40:38.504Z,50.20
2018-08-09T19:43:11.236Z,50.40
2018-08-09T19:49:18.297Z,50.60
2018-08-09T19:51:48.489Z,51.20
2018-08-09T19:54:27.209Z,51.20
2018-08-09T21:04:22.475Z,51.70
2018-08-09T21:06:52.049Z,56.10
2018-08-09T21:09:22.436Z,56.00
2018-08-09T21:11:52.069Z,56.00
2018-08-09T21:14:22.735Z,56.20
2018-08-09T21:16:52.906Z,56.40
2018-08-09T21:19:27.460Z,56.30
2018-08-09T21:22:08.657Z,56.30
2018-08-09T21:24:40.328Z,56.20
2018-08-09T21:27:09.765Z,56.40
2018-08-09T21:29:39.212Z,56.50
2018-08-09T21:32:08.570Z,56.60
2018-08-09T21:34:55.579Z,56.80
2018-08-09T21:37:48.418Z,56.90
2018-08-09T21:43:03.606Z,57.10
2018-08-09T21:45:33.036Z,57.30
2018-08-09T21:48:02.316Z,57.40
2018-08-09T21:50:31.728Z,57.40
2018-08-09T21:53:01.332Z,57.40
2018-08-09T21:56:08.903Z,57.50
2018-08-09T22:17:24.298Z,56.30
2018-08-09T22:19:58.864Z,56.40
2018-08-09T22:22:28.598Z,56.40
2018-08-09T22:24:57.952Z,56.40
2018-08-09T22:27:27.427Z,56.40
2018-08-09T22:33:21.455Z,56.60
2018-08-09T22:35:50.830Z,56.70
2018-08-09T22:38:20.147Z,56.90
2018-08-09T22:40:49.374Z,56.90
2018-08-09T22:43:18.803Z,57.00
2018-08-09T22:45:47.933Z,57.00
2018-08-09T22:48:17.265Z,57.20
2018-08-09T22:50:46.622Z,57.10
2018-08-09T22:53:16.802Z,57.40
2018-08-09T22:55:46.614Z,57.10
2018-08-09T22:58:16.330Z,57.20
2018-08-09T23:00:45.770Z,57.20
2018-08-09T23:03:15.458Z,57.40
2018-08-09T23:05:44.937Z,57.40
2018-08-09T23:08:15.501Z,57.50
2018-08-09T23:10:45.536Z,57.60
2018-08-09T23:13:15.651Z,57.70
2018-08-09T23:15:48.770Z,57.80
2018-08-09T23:18:22.841Z,57.70
2018-08-09T23:20:57.552Z,57.80
2018-08-09T23:23:28.227Z,57.80
2018-08-09T23:26:05.487Z,57.90
2018-08-09T23:28:35.859Z,58.00
2018-08-09T23:31:05.304Z,58.20
2018-08-09T23:33:34.733Z,58.40
2018-08-09T23:36:04.204Z,58.60
2018-08-09T23:38:33.535Z,58.50
2018-08-09T23:41:03.013Z,58.60
2018-08-09T23:43:32.440Z,58.70
2018-08-09T23:46:01.899Z,58.90
2018-08-09T23:48:31.380Z,59.00
2018-08-09T23:51:00.851Z,59.10
2018-08-09T23:53:30.166Z,59.30
2018-08-09T23:55:59.588Z,59.60
2018-08-09T23:58:28.830Z,59.80
